KDEC/DEC METAR and TAF weather

Enter ICAO airport designator
Station Type Date Time Source
KDEC METAR 2018/01/22 11:54 UTC NOAA

KDEC 221154Z 17014KT 10SM -RA OVC075 11/10 A2963 RMK AO2 PK WND 17027/1113 LTG DSNT SE SLP033 P0006 60031 70043 T01060100 10117 20106 56012


Station Type Date Time Source
KDEC Decoded METAR 2018/01/22 11:54 UTC NOAA

DECATUR AIRPORT, IL, United States (KDEC) 39-50N 88-52W 207M
Jan 22, 2018 - 06:54 AM EST / 2018.01.22 1154 UTC
Wind: from the S (170 degrees) at 16 MPH (14 KT):0
Visibility: 10 mile(s):0
Sky conditions: overcast
Weather: light rain; Lightning observed
Precipitation last hour: 0.06 inches
Temperature: 51.1 F (10.6 C)
Dew Point: 50.0 F (10.0 C)
Relative Humidity: 96%
Pressure (altimeter): 29.63 in. Hg (1003 hPa)
Pressure tendency: 0.04 inches (1.2 hPa) lower than three hours ago
ob: KDEC 221154Z 17014KT 10SM -RA OVC075 11/10 A2963 RMK AO2 PK WND 17027/1113 LTG DSNT SE SLP033 P0006 60031 70043 T01060100 10117 20106 56012
cycle: 12

Station Type Date Time Source
KDEC TAF 2018/01/22 12:52 UTC NOAA

TAF KDEC 221150Z 2212/2312 18014G24KT 5SM -SHRA SCT015 OVC035
FM221300 18014G24KT P6SM OVC015
FM221700 18015G25KT P6SM SCT060
FM222000 21013G23KT P6SM VCTS BKN040CB
FM230200 21012KT 6SM -RA BKN025
FM230800 25008KT 5SM -RASN BKN015


Example: see airport list